createdAt,value
2023-04-27T00:00:05.788Z,5.80
2023-04-27T00:02:33.136Z,4.82
2023-04-27T00:05:00.502Z,5.50
2023-04-27T00:07:28.418Z,5.40
2023-04-27T00:09:55.531Z,5.93
2023-04-27T00:12:22.538Z,5.40
2023-04-27T00:14:49.579Z,5.05
2023-04-27T00:17:16.592Z,5.20
2023-04-27T00:19:43.674Z,4.80
2023-04-27T00:22:11.375Z,5.60
2023-04-27T00:24:38.637Z,5.10
2023-04-27T00:27:05.851Z,4.80
2023-04-27T00:29:33.053Z,5.60
2023-04-27T00:32:00.182Z,4.80
2023-04-27T00:34:27.356Z,5.07
2023-04-27T00:36:54.352Z,4.80
2023-04-27T00:39:21.444Z,5.40
2023-04-27T00:41:48.468Z,5.38
2023-04-27T00:44:25.961Z,5.38
2023-04-27T00:46:53.972Z,5.25
2023-04-27T00:49:21.626Z,5.60
2023-04-27T00:51:48.890Z,5.00
2023-04-27T00:54:18.929Z,4.80
2023-04-27T00:56:49.138Z,4.80
2023-04-27T00:59:17.127Z,5.60
2023-04-27T01:01:44.737Z,5.13
2023-04-27T01:04:11.937Z,5.20
2023-04-27T01:06:42.019Z,5.20
2023-04-27T01:09:09.415Z,5.30
2023-04-27T01:11:36.671Z,4.90
2023-04-27T01:14:05.304Z,5.20
2023-04-27T01:16:35.588Z,5.28
2023-04-27T01:19:02.829Z,6.03
2023-04-27T01:21:29.734Z,5.60
2023-04-27T01:23:56.690Z,5.20
2023-04-27T01:26:23.650Z,5.10
2023-04-27T01:28:50.667Z,4.68
2023-04-27T01:31:17.709Z,5.20
2023-04-27T01:33:44.701Z,5.80
2023-04-27T01:36:11.753Z,5.80
2023-04-27T01:38:38.806Z,4.70
2023-04-27T01:41:06.178Z,5.50
2023-04-27T01:43:33.251Z,5.85
2023-04-27T01:46:13.935Z,5.90
2023-04-27T01:48:41.701Z,5.72
2023-04-27T01:51:08.809Z,5.90
2023-04-27T01:53:35.963Z,6.20
2023-04-27T01:56:03.558Z,5.65
2023-04-27T01:58:30.553Z,5.30
2023-04-27T02:00:57.537Z,5.90
2023-04-27T02:03:24.792Z,6.13
2023-04-27T02:05:51.903Z,5.63
2023-04-27T02:08:18.938Z,6.90
2023-04-27T02:10:46.014Z,6.10
2023-04-27T02:13:13.143Z,6.40
2023-04-27T02:15:40.075Z,5.85
2023-04-27T02:18:07.169Z,5.72
2023-04-27T02:20:34.224Z,6.18
2023-04-27T02:23:02.335Z,6.30
2023-04-27T02:25:29.373Z,6.43
2023-04-27T02:27:56.940Z,6.35
2023-04-27T02:30:24.466Z,5.63
2023-04-27T02:32:52.203Z,5.22
2023-04-27T02:35:19.286Z,5.40
2023-04-27T02:37:46.593Z,6.20
2023-04-27T02:40:13.681Z,6.50
2023-04-27T02:42:40.640Z,6.43
2023-04-27T02:45:08.375Z,6.10
2023-04-27T02:47:35.784Z,6.10
2023-04-27T02:50:03.272Z,6.38
2023-04-27T02:52:30.564Z,5.60
2023-04-27T02:54:57.630Z,5.80
2023-04-27T02:57:24.711Z,5.75
2023-04-27T02:59:51.750Z,5.50
2023-04-27T03:02:18.853Z,5.50
2023-04-27T03:04:45.978Z,6.68
2023-04-27T03:07:13.042Z,6.30
2023-04-27T03:09:40.022Z,5.50
2023-04-27T03:12:07.153Z,6.78
2023-04-27T03:14:34.179Z,6.53
2023-04-27T03:17:01.274Z,5.65
2023-04-27T03:19:28.233Z,5.30
2023-04-27T03:21:55.180Z,5.65
2023-04-27T03:24:25.603Z,5.50
2023-04-27T03:26:52.720Z,5.00
2023-04-27T03:29:19.783Z,5.97
2023-04-27T03:31:46.810Z,6.03
2023-04-27T03:34:13.843Z,6.50
2023-04-27T03:36:40.957Z,5.57
2023-04-27T03:39:08.191Z,6.30
2023-04-27T03:41:35.275Z,5.32
2023-04-27T03:44:02.340Z,5.30
2023-04-27T03:46:29.415Z,6.35
2023-04-27T03:48:56.512Z,5.18
2023-04-27T03:51:23.513Z,5.78
2023-04-27T03:53:50.456Z,5.93
2023-04-27T03:56:17.628Z,6.57
2023-04-27T03:58:44.721Z,6.30
2023-04-27T04:01:11.717Z,5.35
2023-04-27T04:03:38.924Z,6.47
2023-04-27T04:06:06.211Z,5.25
2023-04-27T04:08:34.341Z,5.30
2023-04-27T04:11:01.574Z,5.40
2023-04-27T04:13:28.725Z,5.70
2023-04-27T04:16:06.796Z,7.63
2023-04-27T04:18:35.184Z,5.90
2023-04-27T04:21:02.703Z,5.70
2023-04-27T04:23:30.008Z,5.15
2023-04-27T04:25:56.994Z,5.20
2023-04-27T04:28:24.820Z,6.07
2023-04-27T04:30:51.810Z,6.75
2023-04-27T04:33:19.535Z,5.23
2023-04-27T04:35:47.140Z,5.20
2023-04-27T04:38:14.373Z,4.90
2023-04-27T04:40:44.448Z,5.85
2023-04-27T04:43:13.605Z,5.00
2023-04-27T04:45:40.742Z,5.30
2023-04-27T04:48:08.694Z,5.15
2023-04-27T04:50:36.021Z,5.30
2023-04-27T04:53:03.052Z,5.40
2023-04-27T04:55:30.065Z,5.28
2023-04-27T04:57:57.153Z,5.47
2023-04-27T05:00:24.240Z,5.60
2023-04-27T05:02:51.398Z,5.70
2023-04-27T05:05:18.531Z,6.03
2023-04-27T05:07:45.584Z,5.90
2023-04-27T05:10:12.639Z,5.80
2023-04-27T05:12:39.662Z,5.28
2023-04-27T05:15:07.284Z,5.30
2023-04-27T05:17:34.291Z,6.60
2023-04-27T05:20:01.378Z,5.20
2023-04-27T05:22:28.313Z,5.60
2023-04-27T05:24:55.998Z,6.57
2023-04-27T05:27:22.982Z,5.40
2023-04-27T05:29:50.273Z,6.18
2023-04-27T05:32:17.255Z,7.27
2023-04-27T05:34:46.728Z,5.68
2023-04-27T05:37:15.052Z,7.35
2023-04-27T05:39:42.462Z,5.80
2023-04-27T05:42:09.553Z,6.40
2023-04-27T05:44:36.704Z,5.60
2023-04-27T05:47:03.689Z,6.30
2023-04-27T05:49:30.781Z,6.00
2023-04-27T05:51:59.170Z,8.48
2023-04-27T05:54:27.632Z,6.00
2023-04-27T05:56:54.770Z,6.60
2023-04-27T05:59:22.021Z,6.60
2023-04-27T06:01:49.163Z,5.60
2023-04-27T06:04:16.715Z,6.40
2023-04-27T06:06:44.929Z,6.28
2023-04-27T06:09:12.116Z,7.30
2023-04-27T06:11:39.348Z,6.07
2023-04-27T06:14:06.431Z,5.90
2023-04-27T06:16:33.508Z,6.10
2023-04-27T06:19:00.590Z,5.60
2023-04-27T06:21:28.213Z,6.32
2023-04-27T06:23:55.256Z,5.40
2023-04-27T06:26:22.252Z,8.30
2023-04-27T06:28:49.309Z,5.20
2023-04-27T06:31:16.564Z,6.00
2023-04-27T06:33:43.582Z,6.00
2023-04-27T06:36:10.861Z,5.40
2023-04-27T06:38:37.892Z,5.60
2023-04-27T06:41:05.084Z,5.97
2023-04-27T06:43:32.126Z,5.67
2023-04-27T06:45:59.156Z,5.80
2023-04-27T06:48:26.225Z,5.28
2023-04-27T06:50:53.164Z,5.22
2023-04-27T06:53:20.269Z,5.65
2023-04-27T06:55:48.566Z,5.47
2023-04-27T06:58:15.805Z,6.85
2023-04-27T07:00:42.881Z,5.43
2023-04-27T07:03:10.015Z,5.22
2023-04-27T07:05:37.244Z,5.05
2023-04-27T07:08:08.325Z,5.80
2023-04-27T07:10:36.416Z,5.28
2023-04-27T07:13:03.404Z,5.10
2023-04-27T07:15:33.428Z,5.07
2023-04-27T07:18:00.675Z,6.90
2023-04-27T07:20:27.786Z,5.60
2023-04-27T07:22:55.077Z,5.30
2023-04-27T07:25:22.697Z,5.43
2023-04-27T07:27:49.709Z,6.15
2023-04-27T07:30:17.946Z,5.57
2023-04-27T07:32:45.748Z,5.60
2023-04-27T07:35:13.590Z,5.30
2023-04-27T07:37:41.685Z,5.30
2023-04-27T07:40:14.693Z,5.60
2023-04-27T07:42:42.234Z,5.40
2023-04-27T07:45:10.144Z,5.00
2023-04-27T07:47:38.292Z,6.47
2023-04-27T07:50:07.651Z,5.35
2023-04-27T07:52:34.643Z,6.50
2023-04-27T07:55:02.006Z,5.72
2023-04-27T07:57:29.105Z,5.82
2023-04-27T07:59:57.616Z,5.70
2023-04-27T08:02:27.017Z,5.90
2023-04-27T08:04:54.392Z,6.65
2023-04-27T08:07:21.897Z,5.30
2023-04-27T08:09:52.733Z,6.00
2023-04-27T08:12:19.846Z,5.30
2023-04-27T08:14:47.336Z,6.30
2023-04-27T08:17:14.578Z,5.90
2023-04-27T08:19:41.630Z,5.60
2023-04-27T08:22:08.676Z,5.60
2023-04-27T08:24:36.378Z,5.95
2023-04-27T08:27:03.634Z,5.80
2023-04-27T08:29:30.973Z,5.63
2023-04-27T08:32:01.303Z,5.83
2023-04-27T08:34:29.013Z,5.40
2023-04-27T08:36:56.989Z,6.30
2023-04-27T08:39:24.875Z,5.55
2023-04-27T08:41:51.998Z,5.60
2023-04-27T08:44:19.052Z,6.90
2023-04-27T08:46:46.524Z,5.53
2023-04-27T08:49:16.007Z,5.60
2023-04-27T08:51:44.531Z,5.70
2023-04-27T08:54:11.601Z,7.20
2023-04-27T08:56:39.614Z,5.20
2023-04-27T08:59:15.372Z,5.32
2023-04-27T09:01:49.022Z,5.17
2023-04-27T09:04:17.889Z,9.63
2023-04-27T09:06:45.534Z,4.90
2023-04-27T09:09:22.715Z,5.40
2023-04-27T09:11:50.056Z,4.90
2023-04-27T09:14:22.396Z,4.70
2023-04-27T09:16:57.835Z,4.40
2023-04-27T09:19:29.419Z,5.10
2023-04-27T09:22:07.549Z,5.07
2023-04-27T09:24:35.296Z,4.90
2023-04-27T09:27:03.318Z,4.90
2023-04-27T09:29:37.813Z,4.40
2023-04-27T09:32:23.100Z,5.10
2023-04-27T09:34:50.208Z,5.63
2023-04-27T09:37:17.594Z,4.90
2023-04-27T09:39:45.873Z,4.80
2023-04-27T09:42:13.552Z,4.72
2023-04-27T09:44:40.667Z,4.68
2023-04-27T09:47:08.135Z,4.78
2023-04-27T09:49:35.743Z,4.40
2023-04-27T09:52:02.911Z,5.40
2023-04-27T09:54:33.569Z,4.63
2023-04-27T09:57:21.308Z,5.10
2023-04-27T10:00:11.144Z,35.05
2023-04-27T10:03:18.614Z,4.50
2023-04-27T10:06:23.069Z,4.30
2023-04-27T10:08:51.623Z,5.13
2023-04-27T10:11:23.070Z,4.75
2023-04-27T10:13:54.820Z,4.85
2023-04-27T10:16:22.551Z,5.30
2023-04-27T10:18:55.517Z,5.10
2023-04-27T10:21:23.787Z,4.50
2023-04-27T10:23:52.069Z,4.57
2023-04-27T10:26:26.509Z,5.10
2023-04-27T10:29:10.232Z,4.32
2023-04-27T10:31:45.018Z,4.30
2023-04-27T10:34:18.039Z,4.50
2023-04-27T10:36:47.298Z,4.70
2023-04-27T10:39:18.584Z,4.50
2023-04-27T10:41:52.894Z,4.50
2023-04-27T10:44:25.173Z,5.55
2023-04-27T10:46:53.361Z,5.20
2023-04-27T10:49:21.110Z,4.65
2023-04-27T10:51:50.581Z,5.03
2023-04-27T10:54:18.745Z,4.38
2023-04-27T10:56:45.934Z,5.20
2023-04-27T10:59:13.261Z,4.40
2023-04-27T11:01:40.965Z,5.25
2023-04-27T11:04:07.996Z,5.00
2023-04-27T11:06:43.849Z,3.90
2023-04-27T11:09:11.205Z,4.30
2023-04-27T11:11:38.363Z,4.20
2023-04-27T11:14:05.510Z,4.50
2023-04-27T11:16:33.086Z,4.30
2023-04-27T11:19:06.763Z,4.90
2023-04-27T11:21:33.940Z,4.50
2023-04-27T11:24:07.911Z,4.57
2023-04-27T11:26:34.981Z,4.10
2023-04-27T11:29:12.512Z,4.05
2023-04-27T11:31:48.853Z,3.90
2023-04-27T11:34:22.777Z,3.95
2023-04-27T11:39:37.764Z,4.20
2023-04-27T11:42:24.833Z,4.40
2023-04-27T11:45:07.986Z,4.10
2023-04-27T11:47:38.189Z,4.17
2023-04-27T11:50:08.010Z,4.18
2023-04-27T11:52:40.443Z,4.35
2023-04-27T11:55:10.758Z,4.40
2023-04-27T11:57:39.246Z,4.70
2023-04-27T12:00:11.491Z,4.22
2023-04-27T12:02:39.066Z,4.20
2023-04-27T12:05:07.734Z,4.88
2023-04-27T12:07:34.999Z,4.40
2023-04-27T12:10:01.977Z,4.43
2023-04-27T12:12:29.096Z,4.07
2023-04-27T12:14:56.340Z,4.28
2023-04-27T12:17:23.486Z,5.07
2023-04-27T12:19:50.477Z,4.28
2023-04-27T12:22:17.619Z,4.00
2023-04-27T12:24:44.578Z,4.00
2023-04-27T12:27:12.230Z,3.95
2023-04-27T12:29:39.213Z,4.00
2023-04-27T12:32:06.744Z,4.10
2023-04-27T12:34:34.543Z,3.90
2023-04-27T12:37:01.656Z,4.00
2023-04-27T12:39:28.652Z,4.60
2023-04-27T12:41:55.696Z,3.90
2023-04-27T12:44:22.780Z,4.05
2023-04-27T12:46:50.609Z,3.63
2023-04-27T12:49:18.052Z,3.80
2023-04-27T12:51:47.185Z,4.38
2023-04-27T12:54:14.388Z,3.80
2023-04-27T12:56:42.073Z,4.30
2023-04-27T12:59:09.451Z,3.90
2023-04-27T13:01:36.682Z,3.77
2023-04-27T13:04:06.067Z,3.70
2023-04-27T13:06:33.442Z,3.90
2023-04-27T13:09:00.569Z,4.10
2023-04-27T13:11:28.714Z,4.10
2023-04-27T13:13:55.785Z,3.70
2023-04-27T13:16:25.550Z,4.13
2023-04-27T13:18:55.639Z,3.80
2023-04-27T13:21:23.269Z,4.07
2023-04-27T13:23:51.315Z,4.45
2023-04-27T13:26:18.722Z,4.28
2023-04-27T13:28:46.212Z,3.90
2023-04-27T13:31:13.601Z,4.10
2023-04-27T13:33:43.434Z,4.70
2023-04-27T13:36:12.153Z,4.10
2023-04-27T13:38:39.810Z,4.35
2023-04-27T13:41:07.283Z,4.20
2023-04-27T13:43:34.500Z,3.70
2023-04-27T13:46:03.138Z,3.70
2023-04-27T13:48:31.002Z,4.60
2023-04-27T13:50:58.660Z,4.20
2023-04-27T13:53:25.995Z,3.70
2023-04-27T13:55:54.447Z,4.32
2023-04-27T13:58:22.753Z,4.63
2023-04-27T14:00:52.856Z,3.95
2023-04-27T14:03:20.768Z,3.80
2023-04-27T14:05:54.005Z,3.92
2023-04-27T14:08:21.850Z,4.00
2023-04-27T14:10:49.283Z,4.30
2023-04-27T14:13:16.832Z,4.25
2023-04-27T14:15:43.833Z,3.60
2023-04-27T14:18:11.154Z,4.10
2023-04-27T14:20:40.363Z,3.70
2023-04-27T14:23:07.480Z,3.80
2023-04-27T14:25:35.174Z,3.80
2023-04-27T14:28:05.011Z,3.70
2023-04-27T14:30:33.304Z,3.80
2023-04-27T14:33:00.473Z,4.18
2023-04-27T14:35:28.323Z,4.40
2023-04-27T14:37:57.278Z,4.45
2023-04-27T14:40:24.257Z,3.73
2023-04-27T14:42:51.325Z,4.10
2023-04-27T14:45:19.033Z,3.90
2023-04-27T14:47:46.512Z,3.90
2023-04-27T14:50:13.579Z,4.10
2023-04-27T14:52:40.752Z,4.00
2023-04-27T14:55:08.134Z,3.80
2023-04-27T14:57:36.457Z,4.53
2023-04-27T15:00:09.809Z,4.53
2023-04-27T15:02:40.937Z,3.80
2023-04-27T15:05:08.231Z,4.50
2023-04-27T15:07:35.493Z,4.17
2023-04-27T15:10:02.471Z,4.00
2023-04-27T15:12:29.542Z,3.90
2023-04-27T15:14:56.515Z,4.05
2023-04-27T15:17:24.141Z,4.10
2023-04-27T15:19:51.792Z,3.90
2023-04-27T15:22:18.868Z,4.18
2023-04-27T15:24:46.083Z,4.50
2023-04-27T15:27:13.475Z,3.80
2023-04-27T15:29:41.576Z,4.15
2023-04-27T15:32:10.790Z,4.50
2023-04-27T15:34:37.795Z,4.10
2023-04-27T15:37:04.785Z,4.20
2023-04-27T15:39:31.834Z,3.80
2023-04-27T15:41:59.809Z,4.00
2023-04-27T15:44:27.175Z,4.30
2023-04-27T15:46:54.293Z,3.95
2023-04-27T15:49:21.608Z,4.50
2023-04-27T15:51:49.336Z,4.10
2023-04-27T15:54:17.855Z,3.90
2023-04-27T15:56:44.855Z,3.95
2023-04-27T15:59:12.372Z,3.90
2023-04-27T16:01:39.520Z,4.30
2023-04-27T16:04:06.921Z,4.40
2023-04-27T16:06:35.778Z,4.20
2023-04-27T16:09:03.724Z,4.05
2023-04-27T16:11:31.650Z,3.70
2023-04-27T16:13:59.553Z,4.18
2023-04-27T16:16:26.912Z,3.90
2023-04-27T16:18:54.166Z,3.97
2023-04-27T16:21:21.481Z,4.60
2023-04-27T16:23:48.619Z,3.90
2023-04-27T16:26:16.463Z,3.90
2023-04-27T16:28:43.503Z,4.10
2023-04-27T16:31:12.086Z,4.30
2023-04-27T16:33:39.152Z,4.25
2023-04-27T16:36:06.438Z,3.80
2023-04-27T16:38:33.499Z,4.60
2023-04-27T16:41:00.646Z,4.20
2023-04-27T16:43:28.090Z,5.00
2023-04-27T16:45:55.839Z,4.43
2023-04-27T16:48:22.850Z,4.20
2023-04-27T16:50:49.780Z,4.13
2023-04-27T16:53:21.004Z,4.10
2023-04-27T16:55:48.747Z,4.10
2023-04-27T16:58:15.760Z,4.75
2023-04-27T17:00:42.873Z,4.53
2023-04-27T17:03:10.387Z,4.30
2023-04-27T17:05:37.470Z,4.00
2023-04-27T17:08:05.584Z,4.70
2023-04-27T17:10:32.709Z,5.80
2023-04-27T17:12:59.873Z,3.78
2023-04-27T17:15:28.769Z,4.10
2023-04-27T17:17:56.297Z,4.70
2023-04-27T17:20:23.478Z,4.30
2023-04-27T17:22:50.466Z,4.00
2023-04-27T17:25:17.785Z,4.65
2023-04-27T17:27:44.888Z,4.40
2023-04-27T17:30:12.205Z,4.10
2023-04-27T17:32:39.484Z,4.03
2023-04-27T17:35:06.830Z,4.40
2023-04-27T17:37:33.963Z,4.70
2023-04-27T17:40:00.893Z,4.20
2023-04-27T17:42:28.253Z,4.50
2023-04-27T17:44:55.616Z,4.75
2023-04-27T17:47:25.405Z,4.30
2023-04-27T17:49:52.554Z,4.70
2023-04-27T17:52:19.635Z,4.40
2023-04-27T17:54:48.209Z,4.50
2023-04-27T17:57:15.237Z,5.18
2023-04-27T17:59:42.306Z,4.53
2023-04-27T18:02:09.526Z,4.20
2023-04-27T18:04:36.644Z,4.70
2023-04-27T18:07:03.886Z,9.85
2023-04-27T18:09:33.016Z,9.95
2023-04-27T18:12:00.749Z,5.72
2023-04-27T18:14:27.826Z,5.13
2023-04-27T18:16:55.139Z,5.33
2023-04-27T18:19:22.466Z,4.70
2023-04-27T18:21:49.592Z,5.50
2023-04-27T18:24:16.623Z,5.18
2023-04-27T18:26:43.808Z,5.20
2023-04-27T18:29:10.966Z,11.52
2023-04-27T18:31:38.201Z,18.75
2023-04-27T18:34:05.272Z,8.25
2023-04-27T18:36:32.356Z,5.88
2023-04-27T18:38:59.737Z,6.00
2023-04-27T18:41:26.721Z,6.18
2023-04-27T18:43:53.785Z,6.80
2023-04-27T18:46:21.023Z,5.83
2023-04-27T18:48:48.109Z,5.97
2023-04-27T18:51:15.057Z,5.00
2023-04-27T18:53:42.099Z,5.55
2023-04-27T18:56:10.309Z,4.40
2023-04-27T18:58:37.369Z,4.53
2023-04-27T19:01:04.492Z,4.30
2023-04-27T19:03:31.937Z,4.20
2023-04-27T19:05:59.116Z,4.30
2023-04-27T19:08:26.192Z,3.85
2023-04-27T19:10:53.310Z,3.80
2023-04-27T19:13:20.374Z,4.10
2023-04-27T19:15:47.404Z,4.38
2023-04-27T19:18:14.350Z,5.15
2023-04-27T19:20:41.453Z,4.70
2023-04-27T19:23:12.215Z,4.30
2023-04-27T19:25:40.397Z,4.35
2023-04-27T19:28:07.920Z,3.97
2023-04-27T19:30:34.979Z,4.40
2023-04-27T19:33:02.274Z,4.20
2023-04-27T19:35:30.342Z,4.35
2023-04-27T19:37:57.359Z,5.00
2023-04-27T19:40:24.496Z,4.32
2023-04-27T19:42:51.962Z,4.40
2023-04-27T19:45:19.061Z,4.50
2023-04-27T19:47:46.286Z,4.18
2023-04-27T19:50:13.414Z,3.90
2023-04-27T19:52:40.610Z,4.50
2023-04-27T19:55:08.196Z,4.00
2023-04-27T19:57:35.322Z,4.20
2023-04-27T20:00:05.057Z,3.92
2023-04-27T20:02:32.268Z,4.10
2023-04-27T20:04:59.630Z,4.70
2023-04-27T20:07:26.886Z,4.13
2023-04-27T20:09:53.882Z,4.40
2023-04-27T20:12:43.517Z,3.80
2023-04-27T20:15:08.827Z,5.38
2023-04-27T20:17:35.860Z,6.75
2023-04-27T20:20:03.788Z,4.80
2023-04-27T20:22:31.256Z,3.90
2023-04-27T20:24:59.324Z,4.00
2023-04-27T20:27:26.387Z,4.40
2023-04-27T20:29:53.459Z,4.30
2023-04-27T20:32:20.714Z,4.10
2023-04-27T20:34:47.820Z,4.38
2023-04-27T20:37:17.042Z,3.92
2023-04-27T20:39:44.268Z,4.53
2023-04-27T20:42:12.751Z,4.40
2023-04-27T20:44:40.021Z,4.20
2023-04-27T20:47:07.143Z,4.30
2023-04-27T20:49:35.658Z,4.30
2023-04-27T20:52:03.257Z,4.10
2023-04-27T20:54:33.309Z,4.25
2023-04-27T20:57:08.455Z,5.10
2023-04-27T20:59:35.634Z,4.40
2023-04-27T21:02:02.814Z,4.60
2023-04-27T21:04:30.007Z,5.10
2023-04-27T21:06:57.095Z,4.20
2023-04-27T21:09:24.281Z,5.10
2023-04-27T21:11:51.226Z,4.68
2023-04-27T21:14:18.411Z,4.50
2023-04-27T21:16:45.413Z,4.20
2023-04-27T21:19:16.653Z,4.97
2023-04-27T21:21:43.640Z,3.83
2023-04-27T21:24:10.925Z,1999.90
2023-04-27T21:26:37.973Z,4.80
2023-04-27T21:29:06.045Z,4.10
2023-04-27T21:31:33.856Z,4.20
2023-04-27T21:34:02.126Z,4.20
2023-04-27T21:36:29.795Z,4.47
2023-04-27T21:38:56.833Z,4.10
2023-04-27T21:41:23.778Z,4.90
2023-04-27T21:43:51.322Z,5.30
2023-04-27T21:46:18.442Z,4.20
2023-04-27T21:48:45.597Z,4.15
2023-04-27T21:51:12.570Z,3.90
2023-04-27T21:53:39.642Z,3.97
2023-04-27T21:56:07.001Z,5.30
2023-04-27T21:58:33.986Z,4.85
2023-04-27T22:01:01.425Z,4.20
2023-04-27T22:03:29.062Z,4.40
2023-04-27T22:05:57.632Z,4.22
2023-04-27T22:08:24.939Z,4.47
2023-04-27T22:10:51.994Z,195.38
2023-04-27T22:13:19.918Z,4.30
2023-04-27T22:15:47.914Z,5.28
2023-04-27T22:18:15.667Z,4.85
2023-04-27T22:20:43.143Z,4.50
2023-04-27T22:23:10.869Z,4.50
2023-04-27T22:25:39.149Z,4.60
2023-04-27T22:28:06.083Z,4.20
2023-04-27T22:30:34.736Z,4.30
2023-04-27T22:33:03.080Z,4.22
2023-04-27T22:35:30.306Z,5.00
2023-04-27T22:38:00.827Z,5.40
2023-04-27T22:40:28.029Z,4.95
2023-04-27T22:42:55.808Z,6.30
2023-04-27T22:45:23.133Z,1999.90
2023-04-27T22:47:50.393Z,1999.90
2023-04-27T22:50:17.547Z,1999.90
2023-04-27T22:52:44.774Z,1999.90
2023-04-27T22:55:12.696Z,1999.90
2023-04-27T22:57:41.149Z,1999.90
2023-04-27T23:00:11.315Z,1999.90
2023-04-27T23:02:39.613Z,1999.90
2023-04-27T23:05:07.432Z,1999.90
2023-04-27T23:07:35.089Z,1999.90
2023-04-27T23:10:03.097Z,1999.90
2023-04-27T23:12:30.868Z,1999.90
2023-04-27T23:14:58.662Z,1999.90
2023-04-27T23:17:32.179Z,1999.90
2023-04-27T23:20:11.123Z,1999.90
2023-04-27T23:22:43.778Z,1999.90
2023-04-27T23:25:11.342Z,1999.90
2023-04-27T23:27:38.417Z,1999.90
2023-04-27T23:30:05.956Z,1999.90
2023-04-27T23:32:33.215Z,1999.90
2023-04-27T23:35:00.338Z,1999.90
2023-04-27T23:37:27.762Z,1999.90
2023-04-27T23:39:54.714Z,1999.90
2023-04-27T23:42:21.768Z,1999.90
2023-04-27T23:44:48.745Z,1999.90
2023-04-27T23:47:15.821Z,1999.90
2023-04-27T23:49:45.937Z,1332.35
2023-04-27T23:52:12.946Z,37.05
2023-04-27T23:54:40.001Z,194.63
2023-04-27T23:57:07.637Z,4.30
2023-04-27T23:59:35.664Z,4.30
